»·PEaware :: JBU411 KSAN-KSNA

JBU411 :: KSAN-KSNA

FLIGHT INFORMATION

Flight Status: Arrived
Operator:
JetBlue Airways
More flights by this operator :: More flights under this callsign
Pilot: Anonymous 1753 (1753)
Aircraft: AIRBUS A320
(A320)
More flights by this aircraft type
Origin: KSAN San Diego Intl-Lindbergh
United States
Destination: KSNA John Wayne-Orange Co
United States
More flights between these airports :: More routes between these airports
Route: +CWARD2 SLI
File this flight plan on PilotEdge
Remarks:
Altitude:
(Current/Filed)
14,000ft
Speed:
(Current/Filed)
401kts
Departed: 29-Dec-19 11:43 AM
Arrived: 29-Dec-19 12:11 PM
Distance/Time
Traveled:
66nm/0:27
Distance/Time
To Go:
Arrived

Flight Plot

Page will automatically refresh every two minutes.


Map Options




Map Legend


Flown Route
Filed Route
Departure Airport
Arrival Airport
Navaid (VOR, NDB)
Fix

Horizontal Profiles

Position Reports

Time Latitude Longitude Heading Altitude Ground
Speed
29-Dec-19 11:26 32.733243 -117.196052 200 20ft 0kts
29-Dec-19 11:27 32.733243 -117.196052 200 20ft 0kts
29-Dec-19 11:28 32.733243 -117.196052 200 20ft 0kts
29-Dec-19 11:29 32.733243 -117.196052 200 20ft 0kts
29-Dec-19 11:30 32.733243 -117.196052 200 20ft 0kts
29-Dec-19 11:31 32.733243 -117.196052 200 20ft 0kts
29-Dec-19 11:32 32.733243 -117.196052 200 20ft 0kts
29-Dec-19 11:33 32.733243 -117.196052 200 20ft 0kts
29-Dec-19 11:34 32.733244 -117.196051 200 20ft 0kts
29-Dec-19 11:35 32.733636 -117.196136 136 20ft 2kts
29-Dec-19 11:36 32.733678 -117.196781 56 19ft 2kts
29-Dec-19 11:37 32.733575 -117.196994 60 19ft 0kts
29-Dec-19 11:38 32.733646 -117.196848 60 19ft 9kts
29-Dec-19 11:39 32.733318 -117.192786 105 22ft 14kts
29-Dec-19 11:40 32.731899 -117.187152 102 20ft 20kts
29-Dec-19 11:41 32.730057 -117.179364 107 20ft 28kts
29-Dec-19 11:42 32.730837 -117.178488 286 24ft 53kts
29-Dec-19 11:43 32.748184 -117.225341 305 2187ft 219kts
29-Dec-19 11:44 32.791204 -117.301596 302 4984ft 291kts
29-Dec-19 11:45 32.835857 -117.374493 309 9406ft 270kts
29-Dec-19 11:46 32.881761 -117.445904 309 9985ft 274kts
29-Dec-19 11:47 32.930795 -117.522114 309 9987ft 275kts
29-Dec-19 11:48 32.976985 -117.594175 309 9987ft 273kts
29-Dec-19 11:49 33.023009 -117.666049 309 9987ft 272kts
29-Dec-19 11:50 33.070092 -117.736095 319 9988ft 269kts
29-Dec-19 11:51 33.126903 -117.793745 320 9988ft 267kts
29-Dec-19 11:52 33.183558 -117.851467 321 9987ft 267kts
29-Dec-19 11:53 33.253803 -117.876819 347 9985ft 266kts
29-Dec-19 11:54 33.326689 -117.892554 345 9985ft 267kts
29-Dec-19 11:55 33.399002 -117.914001 341 9648ft 267kts
29-Dec-19 11:56 33.469755 -117.940243 342 9144ft 263kts
29-Dec-19 11:57 33.539020 -117.965717 342 7235ft 261kts
29-Dec-19 11:58 33.607230 -117.991496 353 6027ft 261kts
29-Dec-19 11:59 33.667206 -117.957257 32 6018ft 228kts
29-Dec-19 12:00 33.719558 -117.913938 32 5861ft 226kts
29-Dec-19 12:01 33.757573 -117.882654 32 4913ft 228kts
29-Dec-19 12:02 33.809813 -117.840331 32 3908ft 224kts
29-Dec-19 12:03 33.860570 -117.800148 32 3170ft 210kts
29-Dec-19 12:04 33.890008 -117.747111 115 3026ft 211kts
29-Dec-19 12:05 33.842366 -117.718603 214 3034ft 216kts
29-Dec-19 12:06 33.816793 -117.781750 230 3014ft 215kts
29-Dec-19 12:07 33.765592 -117.811819 207 2569ft 197kts
29-Dec-19 12:08 33.719574 -117.841055 207 945ft 155kts
29-Dec-19 12:09 33.685905 -117.862440 206 184ft 136kts
29-Dec-19 12:10 33.669320 -117.871935 129 65ft 7kts
29-Dec-19 12:11 33.669301 -117.871897 120 65ft 0kts
29-Dec-19 12:12 33.670579 -117.869447 39 65ft 18kts
29-Dec-19 12:13 33.675569 -117.865568 28 65ft 24kts
29-Dec-19 12:14 33.676521 -117.864264 117 65ft 0kts
29-Dec-19 12:15 33.676521 -117.864264 117 65ft 0kts

Navigation Log

Ident Type
Flight plan parsing failed, navigation log unavailable